createdAt,value
2019-01-20T00:01:40.825Z,79.12
2019-01-20T00:04:10.267Z,88.70
2019-01-20T00:06:40.169Z,88.27
2019-01-20T00:09:11.976Z,83.82
2019-01-20T00:11:41.501Z,81.50
2019-01-20T00:14:10.929Z,83.37
2019-01-20T00:16:40.394Z,82.40
2019-01-20T00:19:09.966Z,85.25
2019-01-20T00:21:40.369Z,81.12
2019-01-20T00:24:09.871Z,85.03
2019-01-20T00:26:39.493Z,81.90
2019-01-20T00:29:08.928Z,81.72
2019-01-20T00:31:38.403Z,80.38
2019-01-20T00:34:08.184Z,84.65
2019-01-20T00:36:37.656Z,83.55
2019-01-20T00:39:09.645Z,83.27
2019-01-20T00:41:39.070Z,83.72
2019-01-20T00:44:10.657Z,84.57
2019-01-20T00:46:40.225Z,83.17
2019-01-20T00:49:09.669Z,87.93
2019-01-20T00:51:42.478Z,88.78
2019-01-20T00:54:13.926Z,92.57
2019-01-20T00:56:43.306Z,90.75
2019-01-20T00:59:12.899Z,96.17
2019-01-20T01:01:45.399Z,94.62
2019-01-20T01:04:14.851Z,94.72
2019-01-20T01:06:44.353Z,94.22
2019-01-20T01:09:13.852Z,97.60
2019-01-20T01:11:43.309Z,89.95
2019-01-20T01:14:12.766Z,91.70
2019-01-20T01:16:42.195Z,86.65
2019-01-20T01:19:11.705Z,91.00
2019-01-20T01:21:41.182Z,90.10
2019-01-20T01:24:10.643Z,91.22
2019-01-20T01:26:40.297Z,93.82
2019-01-20T01:29:09.743Z,93.17
2019-01-20T01:31:39.209Z,94.10
2019-01-20T01:34:08.676Z,94.55
2019-01-20T01:36:38.286Z,94.22
2019-01-20T01:39:09.329Z,96.78
2019-01-20T01:41:39.157Z,97.27
2019-01-20T01:44:08.983Z,97.60
2019-01-20T01:46:38.425Z,97.70
2019-01-20T01:49:07.902Z,98.83
2019-01-20T01:51:37.384Z,99.60
2019-01-20T01:54:06.854Z,102.85
2019-01-20T01:56:36.486Z,104.40
2019-01-20T01:59:06.148Z,100.67
2019-01-20T02:01:35.618Z,99.95
2019-01-20T02:04:05.082Z,103.22
2019-01-20T02:06:35.774Z,99.62
2019-01-20T02:09:08.024Z,100.87
2019-01-20T02:11:37.552Z,98.58
2019-01-20T02:14:07.287Z,99.22
2019-01-20T02:16:36.898Z,99.72
2019-01-20T02:19:06.682Z,100.40
2019-01-20T02:21:36.160Z,103.58
2019-01-20T02:24:05.744Z,99.60
2019-01-20T02:26:35.512Z,95.28
2019-01-20T02:29:06.040Z,95.87
2019-01-20T02:31:35.902Z,94.07
2019-01-20T02:34:05.392Z,93.85
2019-01-20T02:36:34.879Z,92.27
2019-01-20T02:39:05.746Z,103.85
2019-01-20T02:41:35.162Z,85.92
2019-01-20T02:44:04.887Z,85.57
2019-01-20T02:46:34.345Z,87.53
2019-01-20T02:49:03.783Z,84.22
2019-01-20T02:51:33.337Z,82.27
2019-01-20T02:54:05.702Z,84.95
2019-01-20T02:56:35.169Z,88.05
2019-01-20T02:59:04.622Z,81.97
2019-01-20T03:01:34.210Z,85.20
2019-01-20T03:04:03.667Z,92.07
2019-01-20T03:06:33.336Z,92.65
2019-01-20T03:09:04.612Z,90.32
2019-01-20T03:11:34.148Z,84.17
2019-01-20T03:14:03.703Z,87.15
2019-01-20T03:16:33.505Z,85.55
2019-01-20T03:19:04.317Z,82.60
2019-01-20T03:21:33.923Z,83.50
2019-01-20T03:24:03.377Z,84.95
2019-01-20T03:26:32.853Z,93.25
2019-01-20T03:29:02.326Z,80.77
2019-01-20T03:31:31.869Z,85.83
2019-01-20T03:34:01.290Z,102.05
2019-01-20T03:36:30.784Z,82.57
2019-01-20T03:39:00.273Z,106.20
2019-01-20T03:41:29.780Z,84.20
2019-01-20T03:43:59.237Z,84.85
2019-01-20T03:46:28.969Z,83.00
2019-01-20T03:48:58.435Z,88.67
2019-01-20T03:51:27.914Z,149.97
2019-01-20T03:53:57.676Z,97.10
2019-01-20T03:56:27.163Z,101.12
2019-01-20T03:58:57.245Z,121.20
2019-01-20T04:01:26.683Z,117.17
2019-01-20T04:03:56.405Z,128.45
2019-01-20T04:06:25.883Z,129.23
2019-01-20T04:08:55.345Z,155.87
2019-01-20T04:11:25.129Z,154.70
2019-01-20T04:13:54.559Z,116.90
2019-01-20T04:16:25.002Z,108.78
2019-01-20T04:18:54.500Z,88.85
2019-01-20T04:21:24.010Z,88.00
2019-01-20T04:23:55.968Z,91.10
2019-01-20T04:26:25.501Z,91.92
2019-01-20T04:28:54.957Z,92.88
2019-01-20T04:31:24.439Z,101.90
2019-01-20T04:33:53.888Z,96.75
2019-01-20T04:36:23.390Z,108.57
2019-01-20T04:38:52.837Z,114.22
2019-01-20T04:41:22.535Z,129.50
2019-01-20T04:43:51.988Z,107.90
2019-01-20T04:46:21.516Z,112.52
2019-01-20T04:48:51.029Z,117.97
2019-01-20T04:51:20.612Z,117.15
2019-01-20T04:53:51.616Z,116.40
2019-01-20T04:56:21.123Z,117.08
2019-01-20T04:58:51.836Z,118.80
2019-01-20T05:01:21.295Z,119.08
2019-01-20T05:03:50.801Z,119.97
2019-01-20T05:06:20.586Z,121.97
2019-01-20T05:08:50.061Z,119.02
2019-01-20T05:11:19.533Z,113.10
2019-01-20T05:13:49.012Z,113.03
2019-01-20T05:16:18.655Z,115.00
2019-01-20T05:18:48.152Z,113.52
2019-01-20T05:21:17.615Z,110.53
2019-01-20T05:23:47.392Z,121.35
2019-01-20T05:26:16.838Z,121.40
2019-01-20T05:28:46.550Z,122.07
2019-01-20T05:31:16.040Z,118.60
2019-01-20T05:33:45.460Z,119.08
2019-01-20T05:36:15.412Z,117.37
2019-01-20T05:38:44.910Z,116.83
2019-01-20T05:41:14.533Z,117.25
2019-01-20T05:43:44.005Z,111.22
2019-01-20T05:46:13.454Z,112.17
2019-01-20T05:48:43.155Z,102.27
2019-01-20T05:51:12.615Z,106.58
2019-01-20T05:53:42.144Z,105.83
2019-01-20T05:56:11.913Z,106.17
2019-01-20T05:58:41.422Z,104.15
2019-01-20T06:01:11.142Z,100.40
2019-01-20T06:03:40.667Z,107.85
2019-01-20T06:06:10.166Z,114.95
2019-01-20T06:08:40.244Z,111.70
2019-01-20T06:11:09.662Z,117.75
2019-01-20T06:13:39.320Z,110.47
2019-01-20T06:16:08.827Z,113.93
2019-01-20T06:18:38.284Z,113.10
2019-01-20T06:21:07.973Z,110.83
2019-01-20T06:23:37.497Z,111.88
2019-01-20T06:26:06.925Z,109.87
2019-01-20T06:28:36.781Z,111.57
2019-01-20T06:31:06.213Z,110.25
2019-01-20T06:33:36.098Z,108.90
2019-01-20T06:36:05.775Z,107.30
2019-01-20T06:38:35.391Z,111.40
2019-01-20T06:41:04.852Z,107.52
2019-01-20T06:43:34.477Z,108.70
2019-01-20T06:46:04.683Z,103.67
2019-01-20T06:48:34.271Z,108.52
2019-01-20T06:51:03.708Z,108.22
2019-01-20T06:53:33.365Z,105.30
2019-01-20T06:56:03.707Z,105.15
2019-01-20T06:58:33.216Z,105.78
2019-01-20T07:01:03.309Z,98.78
2019-01-20T07:03:32.767Z,99.60
2019-01-20T07:06:02.231Z,97.90
2019-01-20T07:08:32.361Z,93.27
2019-01-20T07:11:01.813Z,92.05
2019-01-20T07:13:31.287Z,91.97
2019-01-20T07:16:00.764Z,87.33
2019-01-20T07:18:30.253Z,93.75
2019-01-20T07:21:00.170Z,95.45
2019-01-20T07:23:29.625Z,106.07
2019-01-20T07:25:59.064Z,133.32
2019-01-20T07:28:28.808Z,142.62
2019-01-20T07:30:58.477Z,135.52
2019-01-20T07:33:28.086Z,104.72
2019-01-20T07:35:57.582Z,155.48
2019-01-20T07:38:27.115Z,97.47
2019-01-20T07:40:56.591Z,95.87
2019-01-20T07:43:26.122Z,92.43
2019-01-20T07:45:55.545Z,90.72
2019-01-20T07:48:25.153Z,87.53
2019-01-20T07:50:54.637Z,88.30
2019-01-20T07:53:24.610Z,89.97
2019-01-20T07:55:54.040Z,91.83
2019-01-20T07:58:23.797Z,92.75
2019-01-20T08:00:53.467Z,90.83
2019-01-20T08:03:22.874Z,88.82
2019-01-20T08:05:52.323Z,91.53
2019-01-20T08:08:21.909Z,95.50
2019-01-20T08:10:51.423Z,108.87
2019-01-20T08:13:24.351Z,93.40
2019-01-20T08:15:52.860Z,90.50
2019-01-20T08:18:23.759Z,86.50
2019-01-20T08:20:53.332Z,94.70
2019-01-20T08:23:22.851Z,90.42
2019-01-20T08:25:54.586Z,87.60
2019-01-20T08:28:24.094Z,112.92
2019-01-20T08:30:55.266Z,91.60
2019-01-20T08:33:25.824Z,91.67
2019-01-20T08:35:58.508Z,89.20
2019-01-20T08:38:27.939Z,86.72
2019-01-20T08:40:57.612Z,84.70
2019-01-20T08:43:31.939Z,85.27
2019-01-20T08:47:04.963Z,89.92
2019-01-20T08:49:34.536Z,82.15
2019-01-20T08:52:03.999Z,85.50
2019-01-20T08:54:34.480Z,83.67
2019-01-20T08:57:04.005Z,81.30
2019-01-20T08:59:33.484Z,93.22
2019-01-20T09:02:02.940Z,86.57
2019-01-20T09:04:32.963Z,134.85
2019-01-20T09:07:02.457Z,82.42
2019-01-20T09:09:32.073Z,77.35
2019-01-20T09:12:01.680Z,70.47
2019-01-20T09:14:31.113Z,82.50
2019-01-20T09:17:00.666Z,72.30
2019-01-20T09:19:30.078Z,143.02
2019-01-20T09:21:59.500Z,250.07
2019-01-20T09:24:29.013Z,136.57
2019-01-20T09:26:58.765Z,66.22
2019-01-20T09:29:28.237Z,66.15
2019-01-20T09:31:57.686Z,68.92
2019-01-20T09:34:27.271Z,71.65
2019-01-20T09:36:56.708Z,71.50
2019-01-20T09:39:26.175Z,74.55
2019-01-20T09:41:56.081Z,78.67
2019-01-20T09:44:25.588Z,70.08
2019-01-20T09:46:57.623Z,69.72
2019-01-20T09:49:29.146Z,70.40
2019-01-20T09:51:58.764Z,73.37
2019-01-20T09:54:28.212Z,70.85
2019-01-20T09:56:57.730Z,70.53
2019-01-20T09:59:27.232Z,72.97
2019-01-20T10:01:56.768Z,75.67
2019-01-20T10:04:26.319Z,74.87
2019-01-20T10:06:55.950Z,76.95
2019-01-20T10:09:26.365Z,80.77
2019-01-20T10:11:56.601Z,80.00
2019-01-20T10:14:26.327Z,84.28
2019-01-20T10:16:55.949Z,82.10
2019-01-20T10:19:25.473Z,80.00
2019-01-20T10:21:54.928Z,81.53
2019-01-20T10:24:24.451Z,79.07
2019-01-20T10:26:53.983Z,77.65
2019-01-20T10:29:23.916Z,77.00
2019-01-20T10:31:53.506Z,76.57
2019-01-20T10:34:23.214Z,77.72
2019-01-20T10:36:53.536Z,74.17
2019-01-20T10:39:23.056Z,77.03
2019-01-20T10:41:53.546Z,78.62
2019-01-20T10:44:23.180Z,77.40
2019-01-20T10:46:52.723Z,78.25
2019-01-20T10:49:22.125Z,72.82
2019-01-20T10:51:51.687Z,79.67
2019-01-20T10:54:21.093Z,71.87
2019-01-20T10:56:50.609Z,70.95
2019-01-20T10:59:20.280Z,74.00
2019-01-20T11:01:49.954Z,73.35
2019-01-20T11:04:19.872Z,76.82
2019-01-20T11:06:49.391Z,74.67
2019-01-20T11:09:19.198Z,72.62
2019-01-20T11:11:48.678Z,72.03
2019-01-20T11:14:18.111Z,71.22
2019-01-20T11:16:47.732Z,70.52
2019-01-20T11:19:17.418Z,74.80
2019-01-20T11:21:47.228Z,72.32
2019-01-20T11:24:18.716Z,73.17
2019-01-20T11:26:48.118Z,65.47
2019-01-20T11:29:17.793Z,67.75
2019-01-20T11:31:47.377Z,64.03
2019-01-20T11:34:19.211Z,61.40
2019-01-20T11:36:51.239Z,60.77
2019-01-20T11:39:21.729Z,71.40
2019-01-20T11:41:52.286Z,63.40
2019-01-20T11:44:23.939Z,63.13
2019-01-20T11:46:55.137Z,62.30
2019-01-20T11:49:24.669Z,63.73
2019-01-20T11:51:54.672Z,60.40
2019-01-20T11:54:28.308Z,60.90
2019-01-20T11:56:59.509Z,60.35
2019-01-20T11:59:30.212Z,56.45
2019-01-20T12:01:59.958Z,59.42
2019-01-20T12:04:29.485Z,58.87
2019-01-20T12:06:58.973Z,59.43
2019-01-20T12:09:30.504Z,60.08
2019-01-20T12:12:05.880Z,62.10
2019-01-20T12:14:40.606Z,59.50
2019-01-20T12:17:12.929Z,63.73
2019-01-20T12:19:46.283Z,59.98
2019-01-20T12:22:27.302Z,61.33
2019-01-20T12:24:56.887Z,61.85
2019-01-20T12:27:26.466Z,57.33
2019-01-20T12:29:55.987Z,59.55
2019-01-20T12:32:30.632Z,57.48
2019-01-20T12:35:00.314Z,56.23
2019-01-20T12:37:40.062Z,53.47
2019-01-20T12:40:19.218Z,50.60
2019-01-20T12:42:57.936Z,49.98
2019-01-20T12:45:34.103Z,52.03
2019-01-20T12:48:03.722Z,51.75
2019-01-20T12:50:33.708Z,49.65
2019-01-20T12:53:04.466Z,51.45
2019-01-20T12:55:34.111Z,115.90
2019-01-20T12:58:03.812Z,64.00
2019-01-20T13:00:33.252Z,62.40
2019-01-20T13:03:02.718Z,65.62
2019-01-20T13:05:35.444Z,68.83
2019-01-20T13:08:05.627Z,62.83
2019-01-20T13:10:36.812Z,58.50
2019-01-20T13:13:06.368Z,54.93
2019-01-20T13:15:36.140Z,48.23
2019-01-20T13:18:05.744Z,43.78
2019-01-20T13:20:35.186Z,39.10
2019-01-20T13:23:04.974Z,39.80
2019-01-20T13:25:37.457Z,53.05
2019-01-20T13:28:07.024Z,36.98
2019-01-20T13:30:36.538Z,36.80
2019-01-20T13:33:06.014Z,35.23
2019-01-20T13:35:35.558Z,35.68
2019-01-20T13:38:13.491Z,39.27
2019-01-20T13:40:52.949Z,38.73
2019-01-20T13:43:22.675Z,35.35
2019-01-20T13:45:55.158Z,35.13
2019-01-20T13:48:24.784Z,36.20
2019-01-20T13:50:54.647Z,36.15
2019-01-20T13:53:24.924Z,35.43
2019-01-20T13:56:01.036Z,36.20
2019-01-20T13:58:28.504Z,38.55
2019-01-20T14:00:58.144Z,39.05
2019-01-20T14:03:30.622Z,53.35
2019-01-20T14:06:00.226Z,60.78
2019-01-20T14:08:29.897Z,48.30
2019-01-20T14:10:59.450Z,38.28
2019-01-20T14:13:29.141Z,39.83
2019-01-20T14:15:58.661Z,36.10
2019-01-20T14:18:28.139Z,39.67
2019-01-20T14:20:57.681Z,38.23
2019-01-20T14:23:27.241Z,37.80
2019-01-20T14:25:56.660Z,37.05
2019-01-20T14:28:26.084Z,36.20
2019-01-20T14:30:55.672Z,36.65
2019-01-20T14:33:25.233Z,35.43
2019-01-20T14:35:54.665Z,37.03
2019-01-20T14:38:24.822Z,38.60
2019-01-20T14:40:55.156Z,43.08
2019-01-20T14:43:24.560Z,39.60
2019-01-20T14:46:33.242Z,40.20
2019-01-20T14:49:03.822Z,39.30
2019-01-20T14:51:33.560Z,68.28
2019-01-20T14:54:03.013Z,53.05
2019-01-20T14:56:32.441Z,39.33
2019-01-20T14:59:02.093Z,38.55
2019-01-20T15:01:31.582Z,75.50
2019-01-20T15:04:01.272Z,49.53
2019-01-20T15:06:30.799Z,50.90
2019-01-20T15:09:00.269Z,85.45
2019-01-20T15:11:29.819Z,38.98
2019-01-20T15:14:00.610Z,35.47
2019-01-20T15:16:30.095Z,38.80
2019-01-20T15:18:59.546Z,36.63
2019-01-20T15:21:29.071Z,35.25
2019-01-20T15:23:58.467Z,35.55
2019-01-20T15:26:28.002Z,38.02
2019-01-20T15:28:57.794Z,38.78
2019-01-20T15:31:27.218Z,40.13
2019-01-20T15:33:56.874Z,46.65
2019-01-20T15:36:26.345Z,41.92
2019-01-20T15:38:55.936Z,39.48
2019-01-20T15:41:25.370Z,41.77
2019-01-20T15:43:54.903Z,39.20
2019-01-20T15:46:24.349Z,41.33
2019-01-20T15:48:54.219Z,40.03
2019-01-20T15:51:23.679Z,40.90
2019-01-20T15:53:53.216Z,39.50
2019-01-20T15:56:24.130Z,40.45
2019-01-20T15:58:53.653Z,39.67
2019-01-20T16:01:23.261Z,39.42
2019-01-20T16:03:53.159Z,37.98
2019-01-20T16:06:22.839Z,37.03
2019-01-20T16:08:52.414Z,43.00
2019-01-20T16:11:21.874Z,37.55
2019-01-20T16:13:51.387Z,34.63
2019-01-20T16:16:20.846Z,36.37
2019-01-20T16:18:50.305Z,36.90
2019-01-20T16:21:20.213Z,47.20
2019-01-20T16:23:49.728Z,31.57
2019-01-20T16:26:19.452Z,32.55
2019-01-20T16:28:48.928Z,30.27
2019-01-20T16:31:18.435Z,31.55
2019-01-20T16:33:47.994Z,32.15
2019-01-20T16:36:17.622Z,31.65
2019-01-20T16:38:47.073Z,30.47
2019-01-20T16:41:16.681Z,31.05
2019-01-20T16:43:46.111Z,32.78
2019-01-20T16:46:15.575Z,31.25
2019-01-20T16:48:45.006Z,32.60
2019-01-20T16:51:14.532Z,40.38
2019-01-20T16:53:43.933Z,51.88
2019-01-20T16:56:13.400Z,35.58
2019-01-20T16:58:43.174Z,33.73
2019-01-20T17:01:12.701Z,34.27
2019-01-20T17:03:42.321Z,34.35
2019-01-20T17:06:11.983Z,30.60
2019-01-20T17:08:48.963Z,32.73
2019-01-20T17:11:24.633Z,34.67
2019-01-20T17:13:54.160Z,33.83
2019-01-20T17:16:23.625Z,35.13
2019-01-20T17:18:53.196Z,36.15
2019-01-20T17:21:22.803Z,35.38
2019-01-20T17:23:52.298Z,34.65
2019-01-20T17:26:21.804Z,35.28
2019-01-20T17:28:51.528Z,33.83
2019-01-20T17:31:21.022Z,36.48
2019-01-20T17:33:50.496Z,35.60
2019-01-20T17:36:20.165Z,36.90
2019-01-20T17:38:49.614Z,36.35
2019-01-20T17:41:19.085Z,37.88
2019-01-20T17:43:48.691Z,37.35
2019-01-20T17:46:18.116Z,38.25
2019-01-20T17:48:47.594Z,37.50
2019-01-20T17:51:17.156Z,35.28
2019-01-20T17:53:46.643Z,39.08
2019-01-20T17:56:16.102Z,37.23
2019-01-20T17:58:45.886Z,37.40
2019-01-20T18:01:15.306Z,36.65
2019-01-20T18:03:44.768Z,36.53
2019-01-20T18:06:14.400Z,38.53
2019-01-20T18:08:43.914Z,37.75
2019-01-20T18:11:13.418Z,38.63
2019-01-20T18:13:42.833Z,36.83
2019-01-20T18:16:12.396Z,39.03
2019-01-20T18:18:41.848Z,38.50
2019-01-20T18:21:11.375Z,41.35
2019-01-20T18:23:41.201Z,41.60
2019-01-20T18:26:10.668Z,42.17
2019-01-20T18:28:40.105Z,41.95
2019-01-20T18:31:09.598Z,43.50
2019-01-20T18:33:39.108Z,43.10
2019-01-20T18:36:08.556Z,41.35
2019-01-20T18:38:38.034Z,40.88
2019-01-20T18:41:07.787Z,41.00
2019-01-20T18:43:37.305Z,41.83
2019-01-20T18:46:07.980Z,40.10
2019-01-20T18:48:37.450Z,40.03
2019-01-20T18:51:06.897Z,39.75
2019-01-20T18:53:36.568Z,40.17
2019-01-20T18:56:06.066Z,38.13
2019-01-20T18:58:35.486Z,41.13
2019-01-20T19:01:05.635Z,37.65
2019-01-20T19:03:35.108Z,38.95
2019-01-20T19:06:04.792Z,42.27
2019-01-20T19:08:34.252Z,47.20
2019-01-20T19:11:03.727Z,40.00
2019-01-20T19:13:33.189Z,40.90
2019-01-20T19:16:08.708Z,40.15
2019-01-20T19:18:33.830Z,42.67
2019-01-20T19:21:03.253Z,46.18
2019-01-20T19:23:32.874Z,45.85
2019-01-20T19:26:02.344Z,46.02
2019-01-20T19:28:31.811Z,48.68
2019-01-20T19:31:01.311Z,48.85
2019-01-20T19:33:30.761Z,49.27
2019-01-20T19:36:00.242Z,49.15
2019-01-20T19:38:29.858Z,49.88
2019-01-20T19:40:59.333Z,50.20
2019-01-20T19:43:28.814Z,50.60
2019-01-20T19:45:58.333Z,51.25
2019-01-20T19:48:27.757Z,54.88
2019-01-20T19:50:57.224Z,53.35
2019-01-20T19:53:26.705Z,49.95
2019-01-20T19:55:56.487Z,49.05
2019-01-20T19:58:25.897Z,46.02
2019-01-20T20:00:55.433Z,49.27
2019-01-20T20:03:25.405Z,48.85
2019-01-20T20:05:54.837Z,48.78
2019-01-20T20:08:24.372Z,49.13
2019-01-20T20:10:54.068Z,48.28
2019-01-20T20:13:23.770Z,51.30
2019-01-20T20:15:53.282Z,52.43
2019-01-20T20:18:24.649Z,51.68
2019-01-20T20:20:55.252Z,52.78
2019-01-20T20:23:24.725Z,54.05
2019-01-20T20:25:54.294Z,52.97
2019-01-20T20:28:24.071Z,54.67
2019-01-20T20:30:53.825Z,53.13
2019-01-20T20:33:23.330Z,54.15
2019-01-20T20:35:54.607Z,53.97
2019-01-20T20:38:25.009Z,55.92
2019-01-20T20:40:54.481Z,56.20
2019-01-20T20:43:24.203Z,56.70
2019-01-20T20:45:54.165Z,57.48
2019-01-20T20:48:23.705Z,56.10
2019-01-20T20:50:53.187Z,53.25
2019-01-20T20:53:22.836Z,54.50
2019-01-20T20:55:52.311Z,52.85
2019-01-20T20:58:21.820Z,54.08
2019-01-20T21:00:54.342Z,56.13
2019-01-20T21:03:29.599Z,50.15
2019-01-20T21:05:59.337Z,52.27
2019-01-20T21:08:30.050Z,50.35
2019-01-20T21:10:59.537Z,63.73
2019-01-20T21:13:28.999Z,48.35
2019-01-20T21:15:58.464Z,47.20
2019-01-20T21:18:27.919Z,48.50
2019-01-20T21:20:57.422Z,50.73
2019-01-20T21:23:26.852Z,51.13
2019-01-20T21:25:56.363Z,48.60
2019-01-20T21:28:25.815Z,48.90
2019-01-20T21:30:55.484Z,49.00
2019-01-20T21:33:24.925Z,50.35
2019-01-20T21:35:54.408Z,49.53
2019-01-20T21:38:23.882Z,50.78
2019-01-20T21:40:53.363Z,47.53
2019-01-20T21:43:22.866Z,48.75
2019-01-20T21:45:52.388Z,49.88
2019-01-20T21:48:21.849Z,44.48
2019-01-20T21:50:51.298Z,93.27
2019-01-20T21:53:21.686Z,49.10
2019-01-20T21:55:51.171Z,47.03
2019-01-20T21:58:20.600Z,46.70
2019-01-20T22:00:50.049Z,49.83
2019-01-20T22:03:19.474Z,51.92
2019-01-20T22:05:49.098Z,45.12
2019-01-20T22:08:18.567Z,41.10
2019-01-20T22:10:48.035Z,48.38
2019-01-20T22:13:17.530Z,49.18
2019-01-20T22:15:46.982Z,47.50
2019-01-20T22:18:16.402Z,45.30
2019-01-20T22:20:45.938Z,47.30
2019-01-20T22:23:15.376Z,65.30
2019-01-20T22:25:44.908Z,44.90
2019-01-20T22:28:14.377Z,47.27
2019-01-20T22:30:43.819Z,44.20
2019-01-20T22:33:13.378Z,45.00
2019-01-20T22:35:42.967Z,46.18
2019-01-20T22:38:12.453Z,45.12
2019-01-20T22:40:41.914Z,45.07
2019-01-20T22:43:11.367Z,45.12
2019-01-20T22:45:40.859Z,47.95
2019-01-20T22:48:10.304Z,45.12
2019-01-20T22:50:39.801Z,44.65
2019-01-20T22:53:09.286Z,43.17
2019-01-20T22:55:38.762Z,44.48
2019-01-20T22:58:08.225Z,46.00
2019-01-20T23:00:59.205Z,46.28
2019-01-20T23:03:29.300Z,42.67
2019-01-20T23:05:59.069Z,46.05
2019-01-20T23:08:28.558Z,45.17
2019-01-20T23:10:58.005Z,45.33
2019-01-20T23:13:27.455Z,44.63
2019-01-20T23:15:56.957Z,45.05
2019-01-20T23:18:26.424Z,45.83
2019-01-20T23:20:55.890Z,45.70
2019-01-20T23:23:25.329Z,47.50
2019-01-20T23:25:54.789Z,48.02
2019-01-20T23:28:24.258Z,45.40
2019-01-20T23:30:54.033Z,45.70
2019-01-20T23:33:23.487Z,47.60
2019-01-20T23:35:52.981Z,47.05
2019-01-20T23:38:22.393Z,48.87
2019-01-20T23:40:51.836Z,47.70
2019-01-20T23:43:21.301Z,47.05
2019-01-20T23:45:50.726Z,47.15
2019-01-20T23:48:20.190Z,47.15
2019-01-20T23:50:49.613Z,50.38
2019-01-20T23:53:19.231Z,49.93
2019-01-20T23:55:48.630Z,50.45
2019-01-20T23:58:18.179Z,49.00
